sensor_id;sensor_type;location;lat;lon;timestamp;temperature;humidity
11818;DHT22;5966;52.402;5.322;2023-03-26T00:00:51;8.80;99.90
11818;DHT22;5966;52.402;5.322;2023-03-26T00:03:22;8.80;99.90
11818;DHT22;5966;52.402;5.322;2023-03-26T00:06:00;8.80;99.90
11818;DHT22;5966;52.402;5.322;2023-03-26T00:08:29;8.80;99.90
11818;DHT22;5966;52.402;5.322;2023-03-26T00:10:57;8.90;99.90
11818;DHT22;5966;52.402;5.322;2023-03-26T00:13:26;8.90;99.90
11818;DHT22;5966;52.402;5.322;2023-03-26T00:15:55;8.90;99.90
11818;DHT22;5966;52.402;5.322;2023-03-26T00:18:24;8.90;99.90
11818;DHT22;5966;52.402;5.322;2023-03-26T00:20:56;8.90;99.90
11818;DHT22;5966;52.402;5.322;2023-03-26T00:23:24;8.90;99.90
11818;DHT22;5966;52.402;5.322;2023-03-26T00:25:54;8.90;99.90
11818;DHT22;5966;52.402;5.322;2023-03-26T00:28:23;8.90;99.90
11818;DHT22;5966;52.402;5.322;2023-03-26T00:30:56;8.90;99.90
11818;DHT22;5966;52.402;5.322;2023-03-26T00:33:27;8.90;99.90
11818;DHT22;5966;52.402;5.322;2023-03-26T00:35:56;8.90;99.90
11818;DHT22;5966;52.402;5.322;2023-03-26T00:38:25;8.90;99.90
11818;DHT22;5966;52.402;5.322;2023-03-26T00:40:54;9.00;99.90
11818;DHT22;5966;52.402;5.322;2023-03-26T00:43:22;8.90;99.90
11818;DHT22;5966;52.402;5.322;2023-03-26T00:45:53;9.00;99.90
11818;DHT22;5966;52.402;5.322;2023-03-26T00:48:22;9.00;99.90
11818;DHT22;5966;52.402;5.322;2023-03-26T00:51:09;8.90;99.90
11818;DHT22;5966;52.402;5.322;2023-03-26T00:53:38;8.90;99.90
11818;DHT22;5966;52.402;5.322;2023-03-26T00:56:08;8.90;99.90
11818;DHT22;5966;52.402;5.322;2023-03-26T00:58:36;8.90;99.90
11818;DHT22;5966;52.402;5.322;2023-03-26T01:01:07;8.90;99.90
11818;DHT22;5966;52.402;5.322;2023-03-26T01:03:36;8.80;99.90
11818;DHT22;5966;52.402;5.322;2023-03-26T01:06:06;8.80;99.90
11818;DHT22;5966;52.402;5.322;2023-03-26T01:08:38;8.80;99.90
11818;DHT22;5966;52.402;5.322;2023-03-26T01:11:09;8.80;99.90
11818;DHT22;5966;52.402;5.322;2023-03-26T01:13:42;8.80;99.90
11818;DHT22;5966;52.402;5.322;2023-03-26T01:16:18;8.80;99.90
11818;DHT22;5966;52.402;5.322;2023-03-26T01:18:48;8.70;99.90
11818;DHT22;5966;52.402;5.322;2023-03-26T01:21:22;8.70;99.90
11818;DHT22;5966;52.402;5.322;2023-03-26T01:23:57;8.70;99.90
11818;DHT22;5966;52.402;5.322;2023-03-26T01:26:47;8.70;99.90
11818;DHT22;5966;52.402;5.322;2023-03-26T01:29:24;8.80;99.90
11818;DHT22;5966;52.402;5.322;2023-03-26T01:32:02;8.80;99.90
11818;DHT22;5966;52.402;5.322;2023-03-26T01:34:47;8.70;99.90
11818;DHT22;5966;52.402;5.322;2023-03-26T01:37:21;8.70;99.90
11818;DHT22;5966;52.402;5.322;2023-03-26T01:39:55;8.60;99.90
11818;DHT22;5966;52.402;5.322;2023-03-26T01:42:28;8.50;99.90
11818;DHT22;5966;52.402;5.322;2023-03-26T01:45:04;8.40;99.90
11818;DHT22;5966;52.402;5.322;2023-03-26T01:47:35;8.40;99.90
11818;DHT22;5966;52.402;5.322;2023-03-26T01:50:06;8.30;99.90
11818;DHT22;5966;52.402;5.322;2023-03-26T01:52:34;8.30;99.90
11818;DHT22;5966;52.402;5.322;2023-03-26T01:55:05;8.30;99.90
11818;DHT22;5966;52.402;5.322;2023-03-26T01:57:47;8.30;99.90
11818;DHT22;5966;52.402;5.322;2023-03-26T02:00:24;8.40;99.90
11818;DHT22;5966;52.402;5.322;2023-03-26T02:03:03;8.40;99.90
11818;DHT22;5966;52.402;5.322;2023-03-26T02:05:38;8.30;99.90
11818;DHT22;5966;52.402;5.322;2023-03-26T02:08:15;8.30;99.90
11818;DHT22;5966;52.402;5.322;2023-03-26T02:10:50;8.20;99.90
11818;DHT22;5966;52.402;5.322;2023-03-26T02:13:19;8.20;99.90
11818;DHT22;5966;52.402;5.322;2023-03-26T02:15:54;8.20;99.90
11818;DHT22;5966;52.402;5.322;2023-03-26T02:18:23;8.10;99.90
11818;DHT22;5966;52.402;5.322;2023-03-26T02:20:51;8.10;99.90
11818;DHT22;5966;52.402;5.322;2023-03-26T02:23:20;8.00;99.90
11818;DHT22;5966;52.402;5.322;2023-03-26T02:25:49;7.90;99.90
11818;DHT22;5966;52.402;5.322;2023-03-26T02:28:18;7.90;99.90
11818;DHT22;5966;52.402;5.322;2023-03-26T02:30:47;7.80;99.90
11818;DHT22;5966;52.402;5.322;2023-03-26T02:33:14;7.80;99.90
11818;DHT22;5966;52.402;5.322;2023-03-26T02:35:42;7.80;99.90
11818;DHT22;5966;52.402;5.322;2023-03-26T02:38:11;7.80;99.90
11818;DHT22;5966;52.402;5.322;2023-03-26T02:40:40;7.80;99.90
11818;DHT22;5966;52.402;5.322;2023-03-26T02:43:10;7.80;99.90
11818;DHT22;5966;52.402;5.322;2023-03-26T02:45:37;7.70;99.90
11818;DHT22;5966;52.402;5.322;2023-03-26T02:48:06;7.80;99.90
11818;DHT22;5966;52.402;5.322;2023-03-26T02:50:33;7.80;99.90
11818;DHT22;5966;52.402;5.322;2023-03-26T02:53:02;7.80;99.90
11818;DHT22;5966;52.402;5.322;2023-03-26T02:55:30;7.80;99.90
11818;DHT22;5966;52.402;5.322;2023-03-26T02:57:59;7.80;99.90
11818;DHT22;5966;52.402;5.322;2023-03-26T03:00:28;7.80;99.90
11818;DHT22;5966;52.402;5.322;2023-03-26T03:02:56;7.70;99.90
11818;DHT22;5966;52.402;5.322;2023-03-26T03:05:25;7.60;99.90
11818;DHT22;5966;52.402;5.322;2023-03-26T03:07:54;7.60;99.90
11818;DHT22;5966;52.402;5.322;2023-03-26T03:10:24;7.70;99.90
11818;DHT22;5966;52.402;5.322;2023-03-26T03:12:52;7.60;99.90
11818;DHT22;5966;52.402;5.322;2023-03-26T03:15:20;7.60;99.90
11818;DHT22;5966;52.402;5.322;2023-03-26T03:17:49;7.50;99.90
11818;DHT22;5966;52.402;5.322;2023-03-26T03:20:17;7.50;99.90
11818;DHT22;5966;52.402;5.322;2023-03-26T03:22:47;7.50;99.90
11818;DHT22;5966;52.402;5.322;2023-03-26T03:25:15;7.50;99.90
11818;DHT22;5966;52.402;5.322;2023-03-26T03:27:43;7.60;99.90
11818;DHT22;5966;52.402;5.322;2023-03-26T03:30:12;7.60;99.90
11818;DHT22;5966;52.402;5.322;2023-03-26T03:32:40;7.60;99.90
11818;DHT22;5966;52.402;5.322;2023-03-26T03:35:10;7.60;99.90
11818;DHT22;5966;52.402;5.322;2023-03-26T03:37:38;7.60;99.90
11818;DHT22;5966;52.402;5.322;2023-03-26T03:40:07;7.60;99.90
11818;DHT22;5966;52.402;5.322;2023-03-26T03:42:36;7.60;99.90
11818;DHT22;5966;52.402;5.322;2023-03-26T03:45:05;7.60;99.90
11818;DHT22;5966;52.402;5.322;2023-03-26T03:47:33;7.50;99.90
11818;DHT22;5966;52.402;5.322;2023-03-26T03:50:01;7.50;99.90
11818;DHT22;5966;52.402;5.322;2023-03-26T03:52:31;7.50;99.90
11818;DHT22;5966;52.402;5.322;2023-03-26T03:54:59;7.40;99.90
11818;DHT22;5966;52.402;5.322;2023-03-26T03:57:29;7.50;99.90
11818;DHT22;5966;52.402;5.322;2023-03-26T03:59:58;7.50;99.90
11818;DHT22;5966;52.402;5.322;2023-03-26T04:02:27;7.50;99.90
11818;DHT22;5966;52.402;5.322;2023-03-26T04:05:00;7.50;99.90
11818;DHT22;5966;52.402;5.322;2023-03-26T04:07:30;7.50;99.90
11818;DHT22;5966;52.402;5.322;2023-03-26T04:09:59;7.50;99.90
11818;DHT22;5966;52.402;5.322;2023-03-26T04:12:29;7.60;99.90
11818;DHT22;5966;52.402;5.322;2023-03-26T04:14:57;7.60;99.90
11818;DHT22;5966;52.402;5.322;2023-03-26T04:17:25;7.50;99.90
11818;DHT22;5966;52.402;5.322;2023-03-26T04:19:56;7.50;99.90
11818;DHT22;5966;52.402;5.322;2023-03-26T04:22:30;7.40;99.90
11818;DHT22;5966;52.402;5.322;2023-03-26T04:25:00;7.30;99.90
11818;DHT22;5966;52.402;5.322;2023-03-26T04:27:32;7.30;99.90
11818;DHT22;5966;52.402;5.322;2023-03-26T04:30:04;7.20;99.90
11818;DHT22;5966;52.402;5.322;2023-03-26T04:32:33;7.20;99.90
11818;DHT22;5966;52.402;5.322;2023-03-26T04:35:04;7.30;99.90
11818;DHT22;5966;52.402;5.322;2023-03-26T04:37:36;7.30;99.90
11818;DHT22;5966;52.402;5.322;2023-03-26T04:40:08;7.30;99.90
11818;DHT22;5966;52.402;5.322;2023-03-26T04:42:37;7.40;99.90
11818;DHT22;5966;52.402;5.322;2023-03-26T04:45:08;7.30;99.90
11818;DHT22;5966;52.402;5.322;2023-03-26T04:47:36;7.30;99.90
11818;DHT22;5966;52.402;5.322;2023-03-26T04:50:06;7.30;99.90
11818;DHT22;5966;52.402;5.322;2023-03-26T04:52:36;7.20;99.90
11818;DHT22;5966;52.402;5.322;2023-03-26T04:55:11;7.10;99.90
11818;DHT22;5966;52.402;5.322;2023-03-26T04:57:43;7.00;99.90
11818;DHT22;5966;52.402;5.322;2023-03-26T05:00:15;7.00;99.90
11818;DHT22;5966;52.402;5.322;2023-03-26T05:02:44;7.00;99.90
11818;DHT22;5966;52.402;5.322;2023-03-26T05:05:16;7.00;99.90
11818;DHT22;5966;52.402;5.322;2023-03-26T05:07:45;7.00;99.90
11818;DHT22;5966;52.402;5.322;2023-03-26T05:10:14;7.00;99.90
11818;DHT22;5966;52.402;5.322;2023-03-26T05:12:42;7.00;99.90
11818;DHT22;5966;52.402;5.322;2023-03-26T05:15:12;7.00;99.90
11818;DHT22;5966;52.402;5.322;2023-03-26T05:17:40;7.00;99.90
11818;DHT22;5966;52.402;5.322;2023-03-26T05:20:17;7.10;99.90
11818;DHT22;5966;52.402;5.322;2023-03-26T05:22:49;7.10;99.90
11818;DHT22;5966;52.402;5.322;2023-03-26T05:25:18;7.10;99.90
11818;DHT22;5966;52.402;5.322;2023-03-26T05:27:46;7.20;99.90
11818;DHT22;5966;52.402;5.322;2023-03-26T05:30:16;7.20;99.90
11818;DHT22;5966;52.402;5.322;2023-03-26T05:32:46;7.20;99.90
11818;DHT22;5966;52.402;5.322;2023-03-26T05:35:16;7.30;99.90
11818;DHT22;5966;52.402;5.322;2023-03-26T05:37:45;7.30;99.90
11818;DHT22;5966;52.402;5.322;2023-03-26T05:40:15;7.30;99.90
11818;DHT22;5966;52.402;5.322;2023-03-26T05:42:43;7.40;99.90
11818;DHT22;5966;52.402;5.322;2023-03-26T05:45:13;7.40;99.90
11818;DHT22;5966;52.402;5.322;2023-03-26T05:47:41;7.50;99.90
11818;DHT22;5966;52.402;5.322;2023-03-26T05:50:10;7.50;99.90
11818;DHT22;5966;52.402;5.322;2023-03-26T05:52:38;7.50;99.90
11818;DHT22;5966;52.402;5.322;2023-03-26T05:55:07;7.50;99.90
11818;DHT22;5966;52.402;5.322;2023-03-26T05:57:36;7.50;99.90
11818;DHT22;5966;52.402;5.322;2023-03-26T06:00:06;7.60;99.90
11818;DHT22;5966;52.402;5.322;2023-03-26T06:02:34;7.50;99.90
11818;DHT22;5966;52.402;5.322;2023-03-26T06:05:03;7.60;99.90
11818;DHT22;5966;52.402;5.322;2023-03-26T06:07:31;7.60;99.90
11818;DHT22;5966;52.402;5.322;2023-03-26T06:09:59;7.70;99.90
11818;DHT22;5966;52.402;5.322;2023-03-26T06:12:28;7.60;99.90
11818;DHT22;5966;52.402;5.322;2023-03-26T06:14:57;7.60;99.90
11818;DHT22;5966;52.402;5.322;2023-03-26T06:17:25;7.70;99.90
11818;DHT22;5966;52.402;5.322;2023-03-26T06:19:53;7.60;99.90
11818;DHT22;5966;52.402;5.322;2023-03-26T06:22:21;7.70;99.90
11818;DHT22;5966;52.402;5.322;2023-03-26T06:24:49;7.70;99.90
11818;DHT22;5966;52.402;5.322;2023-03-26T06:27:18;7.60;99.90
11818;DHT22;5966;52.402;5.322;2023-03-26T06:29:46;7.60;99.90
11818;DHT22;5966;52.402;5.322;2023-03-26T06:32:16;7.60;99.90
11818;DHT22;5966;52.402;5.322;2023-03-26T06:34:46;7.60;99.90
11818;DHT22;5966;52.402;5.322;2023-03-26T06:37:14;7.70;99.90
11818;DHT22;5966;52.402;5.322;2023-03-26T06:39:42;7.60;99.90
11818;DHT22;5966;52.402;5.322;2023-03-26T06:42:10;7.60;99.90
11818;DHT22;5966;52.402;5.322;2023-03-26T06:44:38;7.60;99.90
11818;DHT22;5966;52.402;5.322;2023-03-26T06:47:06;7.60;99.90
11818;DHT22;5966;52.402;5.322;2023-03-26T06:49:35;7.70;99.90
11818;DHT22;5966;52.402;5.322;2023-03-26T06:52:04;7.70;99.90
11818;DHT22;5966;52.402;5.322;2023-03-26T06:54:32;7.70;99.90
11818;DHT22;5966;52.402;5.322;2023-03-26T06:57:00;7.70;99.90
11818;DHT22;5966;52.402;5.322;2023-03-26T06:59:28;7.70;99.90
11818;DHT22;5966;52.402;5.322;2023-03-26T07:01:56;7.60;99.90
11818;DHT22;5966;52.402;5.322;2023-03-26T07:04:24;7.70;99.90
11818;DHT22;5966;52.402;5.322;2023-03-26T07:06:54;7.70;99.90
11818;DHT22;5966;52.402;5.322;2023-03-26T07:09:22;7.70;99.90
11818;DHT22;5966;52.402;5.322;2023-03-26T07:11:51;7.80;99.90
11818;DHT22;5966;52.402;5.322;2023-03-26T07:14:19;7.70;99.90
11818;DHT22;5966;52.402;5.322;2023-03-26T07:16:47;7.80;99.90
11818;DHT22;5966;52.402;5.322;2023-03-26T07:19:15;7.80;99.90
11818;DHT22;5966;52.402;5.322;2023-03-26T07:21:44;7.80;99.90
11818;DHT22;5966;52.402;5.322;2023-03-26T07:24:15;7.80;99.90
11818;DHT22;5966;52.402;5.322;2023-03-26T07:26:49;7.80;99.90
11818;DHT22;5966;52.402;5.322;2023-03-26T07:29:26;7.80;99.90
11818;DHT22;5966;52.402;5.322;2023-03-26T07:32:03;7.80;99.90
11818;DHT22;5966;52.402;5.322;2023-03-26T07:34:44;7.80;99.90
11818;DHT22;5966;52.402;5.322;2023-03-26T07:37:26;7.80;99.90
11818;DHT22;5966;52.402;5.322;2023-03-26T07:40:01;7.80;99.90
11818;DHT22;5966;52.402;5.322;2023-03-26T07:42:43;7.90;99.90
11818;DHT22;5966;52.402;5.322;2023-03-26T07:45:20;7.80;99.90
11818;DHT22;5966;52.402;5.322;2023-03-26T07:47:49;7.80;99.90
11818;DHT22;5966;52.402;5.322;2023-03-26T07:50:21;7.90;99.90
11818;DHT22;5966;52.402;5.322;2023-03-26T07:52:49;7.90;99.90
11818;DHT22;5966;52.402;5.322;2023-03-26T07:55:19;7.90;99.90
11818;DHT22;5966;52.402;5.322;2023-03-26T07:57:57;7.90;99.90
11818;DHT22;5966;52.402;5.322;2023-03-26T08:00:32;7.90;99.90
11818;DHT22;5966;52.402;5.322;2023-03-26T08:03:21;8.00;99.90
11818;DHT22;5966;52.402;5.322;2023-03-26T08:05:59;8.00;99.90
11818;DHT22;5966;52.402;5.322;2023-03-26T08:08:36;8.10;99.90
11818;DHT22;5966;52.402;5.322;2023-03-26T08:11:14;8.10;99.90
11818;DHT22;5966;52.402;5.322;2023-03-26T08:13:55;8.00;99.90
11818;DHT22;5966;52.402;5.322;2023-03-26T08:16:30;8.00;99.90
11818;DHT22;5966;52.402;5.322;2023-03-26T08:19:06;8.00;99.90
11818;DHT22;5966;52.402;5.322;2023-03-26T08:21:39;8.00;99.90
11818;DHT22;5966;52.402;5.322;2023-03-26T08:24:15;8.00;99.90
11818;DHT22;5966;52.402;5.322;2023-03-26T08:26:51;8.00;99.90
11818;DHT22;5966;52.402;5.322;2023-03-26T08:29:28;8.00;99.90
11818;DHT22;5966;52.402;5.322;2023-03-26T08:32:00;8.00;99.90
11818;DHT22;5966;52.402;5.322;2023-03-26T08:34:30;8.00;99.90
11818;DHT22;5966;52.402;5.322;2023-03-26T08:36:58;8.00;99.90
11818;DHT22;5966;52.402;5.322;2023-03-26T08:39:26;7.90;99.90
11818;DHT22;5966;52.402;5.322;2023-03-26T08:42:25;7.90;99.90
11818;DHT22;5966;52.402;5.322;2023-03-26T08:45:30;8.00;99.90
11818;DHT22;5966;52.402;5.322;2023-03-26T08:48:44;7.90;99.90
11818;DHT22;5966;52.402;5.322;2023-03-26T08:55:06;7.90;99.90
11818;DHT22;5966;52.402;5.322;2023-03-26T08:58:22;7.90;99.90
11818;DHT22;5966;52.402;5.322;2023-03-26T09:01:31;7.90;99.90
11818;DHT22;5966;52.402;5.322;2023-03-26T09:08:05;7.90;99.90
11818;DHT22;5966;52.402;5.322;2023-03-26T09:10:51;7.90;99.90
11818;DHT22;5966;52.402;5.322;2023-03-26T09:13:43;8.00;99.90
11818;DHT22;5966;52.402;5.322;2023-03-26T09:16:44;8.00;99.90
11818;DHT22;5966;52.402;5.322;2023-03-26T09:22:44;8.10;99.90
11818;DHT22;5966;52.402;5.322;2023-03-26T09:25:37;8.10;99.90
11818;DHT22;5966;52.402;5.322;2023-03-26T09:34:27;8.10;99.90
11818;DHT22;5966;52.402;5.322;2023-03-26T09:37:13;8.00;99.90
11818;DHT22;5966;52.402;5.322;2023-03-26T09:39:55;8.00;99.90
11818;DHT22;5966;52.402;5.322;2023-03-26T09:42:36;7.90;99.90
11818;DHT22;5966;52.402;5.322;2023-03-26T09:45:22;8.00;99.90
11818;DHT22;5966;52.402;5.322;2023-03-26T09:48:20;8.00;99.90
11818;DHT22;5966;52.402;5.322;2023-03-26T09:51:14;7.90;99.90
11818;DHT22;5966;52.402;5.322;2023-03-26T09:56:46;7.90;99.90
11818;DHT22;5966;52.402;5.322;2023-03-26T09:59:35;8.00;99.90
11818;DHT22;5966;52.402;5.322;2023-03-26T10:02:25;8.00;99.90
11818;DHT22;5966;52.402;5.322;2023-03-26T10:05:34;8.10;99.90
11818;DHT22;5966;52.402;5.322;2023-03-26T10:11:09;8.10;99.90
11818;DHT22;5966;52.402;5.322;2023-03-26T10:13:51;8.10;99.90
11818;DHT22;5966;52.402;5.322;2023-03-26T10:16:27;8.10;99.90
11818;DHT22;5966;52.402;5.322;2023-03-26T10:19:05;8.00;99.90
11818;DHT22;5966;52.402;5.322;2023-03-26T10:21:43;8.10;99.90
11818;DHT22;5966;52.402;5.322;2023-03-26T10:24:38;8.00;99.90
11818;DHT22;5966;52.402;5.322;2023-03-26T10:27:18;8.00;99.90
11818;DHT22;5966;52.402;5.322;2023-03-26T10:30:37;8.10;99.90
11818;DHT22;5966;52.402;5.322;2023-03-26T10:33:21;8.10;99.90
11818;DHT22;5966;52.402;5.322;2023-03-26T10:36:11;8.10;99.90
11818;DHT22;5966;52.402;5.322;2023-03-26T10:39:12;8.20;99.90
11818;DHT22;5966;52.402;5.322;2023-03-26T10:42:12;8.30;99.90
11818;DHT22;5966;52.402;5.322;2023-03-26T10:45:12;8.40;99.90
11818;DHT22;5966;52.402;5.322;2023-03-26T10:48:01;8.30;99.90
11818;DHT22;5966;52.402;5.322;2023-03-26T10:50:52;8.30;99.90
11818;DHT22;5966;52.402;5.322;2023-03-26T10:53:34;8.30;99.90
11818;DHT22;5966;52.402;5.322;2023-03-26T10:56:13;8.30;99.90
11818;DHT22;5966;52.402;5.322;2023-03-26T10:58:43;8.30;99.90
11818;DHT22;5966;52.402;5.322;2023-03-26T11:01:23;8.40;99.90
11818;DHT22;5966;52.402;5.322;2023-03-26T11:03:55;8.40;99.90
11818;DHT22;5966;52.402;5.322;2023-03-26T11:06:34;8.40;99.90
11818;DHT22;5966;52.402;5.322;2023-03-26T11:09:14;8.40;99.90
11818;DHT22;5966;52.402;5.322;2023-03-26T11:11:49;8.40;99.90
11818;DHT22;5966;52.402;5.322;2023-03-26T11:14:23;8.50;99.90
11818;DHT22;5966;52.402;5.322;2023-03-26T11:17:08;8.50;99.90
11818;DHT22;5966;52.402;5.322;2023-03-26T11:20:06;8.50;99.90
11818;DHT22;5966;52.402;5.322;2023-03-26T11:22:44;8.60;99.90
11818;DHT22;5966;52.402;5.322;2023-03-26T11:25:33;8.60;99.90
11818;DHT22;5966;52.402;5.322;2023-03-26T11:28:15;8.50;99.90
11818;DHT22;5966;52.402;5.322;2023-03-26T11:30:49;8.60;99.90
11818;DHT22;5966;52.402;5.322;2023-03-26T11:33:24;8.70;99.90
11818;DHT22;5966;52.402;5.322;2023-03-26T11:36:02;8.80;99.90
11818;DHT22;5966;52.402;5.322;2023-03-26T11:38:35;8.80;99.90
11818;DHT22;5966;52.402;5.322;2023-03-26T11:41:10;8.80;99.90
11818;DHT22;5966;52.402;5.322;2023-03-26T11:43:40;8.80;99.90
11818;DHT22;5966;52.402;5.322;2023-03-26T11:46:11;8.80;99.90
11818;DHT22;5966;52.402;5.322;2023-03-26T11:48:41;8.80;99.90
11818;DHT22;5966;52.402;5.322;2023-03-26T11:51:15;9.00;99.90
11818;DHT22;5966;52.402;5.322;2023-03-26T11:53:45;9.00;99.90
11818;DHT22;5966;52.402;5.322;2023-03-26T11:56:19;9.10;99.90
11818;DHT22;5966;52.402;5.322;2023-03-26T11:58:54;9.00;99.90
11818;DHT22;5966;52.402;5.322;2023-03-26T12:01:26;9.00;99.90
11818;DHT22;5966;52.402;5.322;2023-03-26T12:03:58;9.10;99.90
11818;DHT22;5966;52.402;5.322;2023-03-26T12:06:29;9.10;99.90
11818;DHT22;5966;52.402;5.322;2023-03-26T12:08:58;9.00;99.90
11818;DHT22;5966;52.402;5.322;2023-03-26T12:11:29;9.00;99.90
11818;DHT22;5966;52.402;5.322;2023-03-26T12:14:04;8.90;99.90
11818;DHT22;5966;52.402;5.322;2023-03-26T12:16:33;8.80;99.90
11818;DHT22;5966;52.402;5.322;2023-03-26T12:19:03;8.90;99.90
11818;DHT22;5966;52.402;5.322;2023-03-26T12:21:43;8.80;99.90
11818;DHT22;5966;52.402;5.322;2023-03-26T12:24:25;8.80;99.90
11818;DHT22;5966;52.402;5.322;2023-03-26T12:26:58;8.80;99.90
11818;DHT22;5966;52.402;5.322;2023-03-26T12:29:29;8.90;99.90
11818;DHT22;5966;52.402;5.322;2023-03-26T12:32:05;8.90;99.90
11818;DHT22;5966;52.402;5.322;2023-03-26T12:34:35;8.80;99.90
11818;DHT22;5966;52.402;5.322;2023-03-26T12:37:06;8.90;99.90
11818;DHT22;5966;52.402;5.322;2023-03-26T12:39:36;8.90;99.90
11818;DHT22;5966;52.402;5.322;2023-03-26T12:42:27;8.90;99.90
11818;DHT22;5966;52.402;5.322;2023-03-26T12:45:19;8.80;99.90
11818;DHT22;5966;52.402;5.322;2023-03-26T12:47:49;8.80;99.90
11818;DHT22;5966;52.402;5.322;2023-03-26T12:50:33;8.90;99.90
11818;DHT22;5966;52.402;5.322;2023-03-26T12:53:26;8.80;99.90
11818;DHT22;5966;52.402;5.322;2023-03-26T12:56:00;8.80;99.90
11818;DHT22;5966;52.402;5.322;2023-03-26T12:58:58;8.80;99.90
11818;DHT22;5966;52.402;5.322;2023-03-26T13:01:43;8.90;99.90
11818;DHT22;5966;52.402;5.322;2023-03-26T13:04:41;8.80;99.90
11818;DHT22;5966;52.402;5.322;2023-03-26T13:07:39;8.90;99.90
11818;DHT22;5966;52.402;5.322;2023-03-26T13:16:18;8.90;99.90
11818;DHT22;5966;52.402;5.322;2023-03-26T13:18:53;8.90;99.90
11818;DHT22;5966;52.402;5.322;2023-03-26T13:21:30;8.90;99.90
11818;DHT22;5966;52.402;5.322;2023-03-26T13:24:06;8.90;99.90
11818;DHT22;5966;52.402;5.322;2023-03-26T13:26:47;8.90;99.90
11818;DHT22;5966;52.402;5.322;2023-03-26T13:29:21;9.00;99.90
11818;DHT22;5966;52.402;5.322;2023-03-26T13:31:59;8.80;99.90
11818;DHT22;5966;52.402;5.322;2023-03-26T13:34:35;8.80;99.90
11818;DHT22;5966;52.402;5.322;2023-03-26T13:37:10;8.90;99.90
11818;DHT22;5966;52.402;5.322;2023-03-26T13:39:48;8.90;99.90
11818;DHT22;5966;52.402;5.322;2023-03-26T13:42:30;9.00;99.90
11818;DHT22;5966;52.402;5.322;2023-03-26T13:45:13;8.80;99.90
11818;DHT22;5966;52.402;5.322;2023-03-26T13:47:46;8.70;99.90
11818;DHT22;5966;52.402;5.322;2023-03-26T13:50:22;8.60;99.90
11818;DHT22;5966;52.402;5.322;2023-03-26T13:52:55;8.60;99.90
11818;DHT22;5966;52.402;5.322;2023-03-26T13:55:27;8.60;99.90
11818;DHT22;5966;52.402;5.322;2023-03-26T13:58:00;8.50;99.90
11818;DHT22;5966;52.402;5.322;2023-03-26T14:00:44;8.40;99.90
11818;DHT22;5966;52.402;5.322;2023-03-26T14:03:20;8.40;99.90
11818;DHT22;5966;52.402;5.322;2023-03-26T14:05:53;8.40;99.90
11818;DHT22;5966;52.402;5.322;2023-03-26T14:08:26;8.40;99.90
11818;DHT22;5966;52.402;5.322;2023-03-26T14:11:03;8.40;99.90
11818;DHT22;5966;52.402;5.322;2023-03-26T14:13:40;8.30;99.90
11818;DHT22;5966;52.402;5.322;2023-03-26T14:16:10;8.30;99.90
11818;DHT22;5966;52.402;5.322;2023-03-26T14:18:47;8.30;99.90
11818;DHT22;5966;52.402;5.322;2023-03-26T14:21:40;8.20;99.90
11818;DHT22;5966;52.402;5.322;2023-03-26T14:27:30;8.10;99.90
11818;DHT22;5966;52.402;5.322;2023-03-26T14:30:22;8.20;99.90
11818;DHT22;5966;52.402;5.322;2023-03-26T14:33:04;8.20;99.90
11818;DHT22;5966;52.402;5.322;2023-03-26T14:35:41;8.20;99.90
11818;DHT22;5966;52.402;5.322;2023-03-26T14:38:27;8.10;99.90
11818;DHT22;5966;52.402;5.322;2023-03-26T14:41:12;8.10;99.90
11818;DHT22;5966;52.402;5.322;2023-03-26T14:44:10;8.10;99.90
11818;DHT22;5966;52.402;5.322;2023-03-26T14:47:00;8.00;99.90
11818;DHT22;5966;52.402;5.322;2023-03-26T14:50:07;8.00;99.90
11818;DHT22;5966;52.402;5.322;2023-03-26T14:52:48;8.00;99.90
11818;DHT22;5966;52.402;5.322;2023-03-26T14:55:33;8.00;99.90
11818;DHT22;5966;52.402;5.322;2023-03-26T14:58:20;8.10;99.90
11818;DHT22;5966;52.402;5.322;2023-03-26T15:04:33;8.10;99.90
11818;DHT22;5966;52.402;5.322;2023-03-26T15:07:46;8.10;99.90
11818;DHT22;5966;52.402;5.322;2023-03-26T15:11:04;8.00;99.90
11818;DHT22;5966;52.402;5.322;2023-03-26T15:13:52;8.00;99.90
11818;DHT22;5966;52.402;5.322;2023-03-26T15:16:47;8.00;99.90
11818;DHT22;5966;52.402;5.322;2023-03-26T15:19:52;8.00;99.90
11818;DHT22;5966;52.402;5.322;2023-03-26T15:29:02;8.50;99.90
11818;DHT22;5966;52.402;5.322;2023-03-26T15:31:46;8.40;99.90
11818;DHT22;5966;52.402;5.322;2023-03-26T15:34:34;8.30;99.90
11818;DHT22;5966;52.402;5.322;2023-03-26T15:37:40;8.20;99.90
11818;DHT22;5966;52.402;5.322;2023-03-26T15:40:39;8.10;99.90
11818;DHT22;5966;52.402;5.322;2023-03-26T15:43:11;8.00;99.90
11818;DHT22;5966;52.402;5.322;2023-03-26T15:45:43;8.00;99.90
11818;DHT22;5966;52.402;5.322;2023-03-26T15:51:23;8.00;99.90
11818;DHT22;5966;52.402;5.322;2023-03-26T15:53:56;7.90;99.90
11818;DHT22;5966;52.402;5.322;2023-03-26T15:56:43;7.90;99.90
11818;DHT22;5966;52.402;5.322;2023-03-26T15:59:25;8.00;99.90
11818;DHT22;5966;52.402;5.322;2023-03-26T16:01:58;8.00;99.90
11818;DHT22;5966;52.402;5.322;2023-03-26T16:04:41;7.90;99.90
11818;DHT22;5966;52.402;5.322;2023-03-26T16:07:32;7.80;99.90
11818;DHT22;5966;52.402;5.322;2023-03-26T16:10:21;7.70;99.90
11818;DHT22;5966;52.402;5.322;2023-03-26T16:13:16;7.60;99.90
11818;DHT22;5966;52.402;5.322;2023-03-26T16:15:50;7.60;99.90
11818;DHT22;5966;52.402;5.322;2023-03-26T16:18:32;7.60;99.90
11818;DHT22;5966;52.402;5.322;2023-03-26T16:21:24;7.50;99.90
11818;DHT22;5966;52.402;5.322;2023-03-26T16:24:14;7.60;99.90
11818;DHT22;5966;52.402;5.322;2023-03-26T16:26:53;7.50;99.90
11818;DHT22;5966;52.402;5.322;2023-03-26T16:29:26;7.50;99.90
11818;DHT22;5966;52.402;5.322;2023-03-26T16:32:09;7.30;99.90
11818;DHT22;5966;52.402;5.322;2023-03-26T16:34:46;7.30;99.90
11818;DHT22;5966;52.402;5.322;2023-03-26T16:37:40;7.30;99.90
11818;DHT22;5966;52.402;5.322;2023-03-26T16:40:31;7.30;99.90
11818;DHT22;5966;52.402;5.322;2023-03-26T16:43:18;7.20;99.90
11818;DHT22;5966;52.402;5.322;2023-03-26T16:45:51;7.20;99.90
11818;DHT22;5966;52.402;5.322;2023-03-26T16:48:28;7.20;99.90
11818;DHT22;5966;52.402;5.322;2023-03-26T16:51:05;7.20;99.90
11818;DHT22;5966;52.402;5.322;2023-03-26T16:53:39;7.20;99.90
11818;DHT22;5966;52.402;5.322;2023-03-26T16:56:15;7.20;99.90
11818;DHT22;5966;52.402;5.322;2023-03-26T16:58:52;7.20;99.90
11818;DHT22;5966;52.402;5.322;2023-03-26T17:01:27;7.20;99.90
11818;DHT22;5966;52.402;5.322;2023-03-26T17:04:03;7.20;99.90
11818;DHT22;5966;52.402;5.322;2023-03-26T17:06:59;7.20;99.90
11818;DHT22;5966;52.402;5.322;2023-03-26T17:09:38;7.20;99.90
11818;DHT22;5966;52.402;5.322;2023-03-26T17:12:16;7.10;99.90
11818;DHT22;5966;52.402;5.322;2023-03-26T17:14:55;7.10;99.90
11818;DHT22;5966;52.402;5.322;2023-03-26T17:17:39;7.10;99.90
11818;DHT22;5966;52.402;5.322;2023-03-26T17:20:18;7.10;99.90
11818;DHT22;5966;52.402;5.322;2023-03-26T17:23:01;7.10;99.90
11818;DHT22;5966;52.402;5.322;2023-03-26T17:25:35;7.00;99.90
11818;DHT22;5966;52.402;5.322;2023-03-26T17:28:19;7.00;99.90
11818;DHT22;5966;52.402;5.322;2023-03-26T17:31:01;6.90;99.90
11818;DHT22;5966;52.402;5.322;2023-03-26T17:33:32;6.90;99.90
11818;DHT22;5966;52.402;5.322;2023-03-26T17:36:22;6.80;99.90
11818;DHT22;5966;52.402;5.322;2023-03-26T17:39:17;6.80;99.90
11818;DHT22;5966;52.402;5.322;2023-03-26T17:41:54;6.80;99.90
11818;DHT22;5966;52.402;5.322;2023-03-26T17:44:42;6.90;99.90
11818;DHT22;5966;52.402;5.322;2023-03-26T17:47:21;6.90;99.90